Terminal Aerodrome Forecast
Issued by NWS

Home | Current Version | Previous Version | Text Only | Print | Product List | Glossary Off
Versions: 1 2 3 4 5 6 7 8 9 10 11 12 13 14 15 16 17 18 19 20 21

000
FTUS43 KGRB 180500 AAA
TAFMTW
TAF AMD
KMTW 180504Z 1805/1824 30007KT P6SM BKN020
      TEMPO 1805/1809 BKN015
     FM181000 34006KT P6SM SCT040
     FM181900 35005KT P6SM SKC=

USA.gov is the U.S. government's official web portal to all federal, state and local government web resources and services.